createdAt,value
2018-04-18T00:03:29.514Z,11.90
2018-04-18T00:08:32.298Z,11.80
2018-04-18T00:13:35.031Z,11.80
2018-04-18T00:18:37.822Z,11.70
2018-04-18T00:23:40.905Z,11.60
2018-04-18T00:28:43.616Z,11.50
2018-04-18T00:33:49.254Z,11.50
2018-04-18T00:44:06.986Z,11.40
2018-04-18T00:49:09.865Z,11.30
2018-04-18T00:54:12.820Z,11.30
2018-04-18T00:59:15.717Z,11.20
2018-04-18T01:04:19.266Z,11.10
2018-04-18T01:09:22.178Z,11.00
2018-04-18T01:14:25.016Z,11.00
2018-04-18T01:19:27.965Z,10.90
2018-04-18T01:24:30.760Z,10.90
2018-04-18T01:29:33.620Z,10.80
2018-04-18T01:34:36.540Z,10.80
2018-04-18T01:39:39.391Z,10.70
2018-04-18T01:44:42.126Z,10.70
2018-04-18T01:49:44.962Z,10.60
2018-04-18T01:54:48.005Z,10.50
2018-04-18T01:59:50.740Z,10.50
2018-04-18T02:04:53.814Z,10.40
2018-04-18T02:09:57.182Z,10.30
2018-04-18T02:15:01.205Z,10.30
2018-04-18T02:20:04.133Z,10.30
2018-04-18T02:25:06.998Z,10.20
2018-04-18T02:30:09.864Z,10.20
2018-04-18T02:35:12.664Z,10.10
2018-04-18T02:40:16.531Z,10.00
2018-04-18T02:45:19.352Z,10.00
2018-04-18T02:50:22.183Z,10.00
2018-04-18T02:55:24.744Z,9.90
2018-04-18T03:00:28.065Z,9.90
2018-04-18T03:05:30.911Z,9.80
2018-04-18T03:10:34.364Z,9.70
2018-04-18T03:15:37.209Z,9.70
2018-04-18T03:20:40.140Z,9.70
2018-04-18T03:25:44.463Z,9.60
2018-04-18T03:30:47.646Z,9.50
2018-04-18T03:35:51.066Z,9.50
2018-04-18T03:40:54.489Z,9.50
2018-04-18T03:45:57.165Z,9.40
2018-04-18T03:50:59.971Z,9.40
2018-04-18T03:56:02.647Z,9.40
2018-04-18T04:01:05.413Z,9.30
2018-04-18T04:06:08.227Z,9.30
2018-04-18T04:11:11.278Z,9.30
2018-04-18T04:16:26.037Z,9.20
2018-04-18T04:21:41.279Z,9.20
2018-04-18T04:26:44.010Z,9.20
2018-04-18T04:31:47.377Z,9.10
2018-04-18T04:36:50.227Z,9.10
2018-04-18T04:41:52.868Z,9.10
2018-04-18T04:46:56.528Z,9.10
2018-04-18T04:51:59.426Z,9.10
2018-04-18T04:57:02.083Z,9.10
2018-04-18T05:02:04.878Z,9.10
2018-04-18T05:07:08.278Z,9.10
2018-04-18T05:12:11.045Z,9.20
2018-04-18T05:17:14.527Z,9.20
2018-04-18T05:22:17.526Z,9.40
2018-04-18T05:27:20.826Z,9.60
2018-04-18T05:32:23.554Z,9.80
2018-04-18T05:37:26.310Z,10.10
2018-04-18T05:42:28.972Z,10.30
2018-04-18T05:47:31.929Z,10.70
2018-04-18T05:52:34.972Z,11.00
2018-04-18T05:57:38.530Z,11.30
2018-04-18T06:02:41.870Z,11.70
2018-04-18T06:07:45.060Z,12.00
2018-04-18T06:12:48.808Z,12.30
2018-04-18T06:17:51.729Z,12.60
2018-04-18T06:22:56.512Z,12.90
2018-04-18T06:28:00.198Z,13.20
2018-04-18T06:33:03.005Z,13.60
2018-04-18T06:38:07.471Z,13.90
2018-04-18T06:43:11.817Z,14.30
2018-04-18T06:48:14.874Z,14.60
2018-04-18T06:53:18.323Z,15.00
2018-04-18T06:58:22.943Z,15.40
2018-04-18T07:03:25.957Z,15.70
2018-04-18T07:08:29.683Z,16.00
2018-04-18T07:13:32.714Z,16.30
2018-04-18T07:18:35.733Z,16.60
2018-04-18T07:23:38.627Z,17.00
2018-04-18T07:28:42.124Z,17.30
2018-04-18T07:33:46.544Z,17.60
2018-04-18T07:38:50.168Z,18.00
2018-04-18T07:43:53.349Z,18.40
2018-04-18T07:48:57.012Z,18.70
2018-04-18T07:54:01.378Z,19.00
2018-04-18T07:59:05.014Z,19.30
2018-04-18T08:04:08.006Z,19.50
2018-04-18T08:09:13.032Z,19.90
2018-04-18T08:14:17.200Z,20.10
2018-04-18T08:19:21.794Z,20.30
2018-04-18T08:24:27.806Z,20.60
2018-04-18T08:29:31.392Z,20.80
2018-04-18T08:34:34.540Z,21.00
2018-04-18T08:39:38.379Z,21.20
2018-04-18T08:44:42.248Z,21.40
2018-04-18T08:49:46.903Z,21.60
2018-04-18T08:54:50.525Z,21.90
2018-04-18T08:59:55.439Z,22.00
2018-04-18T09:04:59.288Z,22.30
2018-04-18T09:10:02.207Z,22.50
2018-04-18T09:15:10.862Z,22.70
2018-04-18T09:20:15.665Z,22.90
2018-04-18T09:25:20.203Z,23.10
2018-04-18T09:30:25.174Z,23.40
2018-04-18T09:35:29.129Z,23.40
2018-04-18T09:40:35.107Z,23.70
2018-04-18T09:45:38.737Z,23.90
2018-04-18T09:50:41.926Z,24.00
2018-04-18T09:55:48.889Z,24.30
2018-04-18T10:01:01.665Z,24.40
2018-04-18T10:06:06.225Z,24.60
2018-04-18T10:11:10.444Z,24.80
2018-04-18T10:16:14.111Z,25.10
2018-04-18T10:21:17.131Z,25.30
2018-04-18T10:26:20.653Z,25.50
2018-04-18T10:31:24.395Z,25.70
2018-04-18T10:36:27.433Z,26.00
2018-04-18T10:41:33.247Z,26.10
2018-04-18T10:46:38.162Z,26.30
2018-04-18T10:51:41.293Z,26.40
2018-04-18T10:56:44.532Z,26.60
2018-04-18T11:06:57.409Z,26.70
2018-04-18T11:12:01.089Z,26.80
2018-04-18T11:17:05.902Z,27.00
2018-04-18T11:22:11.389Z,27.10
2018-04-18T11:27:15.230Z,27.20
2018-04-18T11:32:20.568Z,27.30
2018-04-18T11:37:24.222Z,27.40
2018-04-18T11:42:26.921Z,27.50
2018-04-18T11:47:29.740Z,27.50
2018-04-18T11:52:33.587Z,27.50
2018-04-18T11:57:37.032Z,27.60
2018-04-18T12:02:43.770Z,27.70
2018-04-18T12:07:46.889Z,27.90
2018-04-18T12:12:51.008Z,27.80
2018-04-18T12:17:56.253Z,27.90
2018-04-18T12:23:00.225Z,27.90
2018-04-18T12:28:03.678Z,28.00
2018-04-18T12:33:08.951Z,28.00
2018-04-18T12:38:12.553Z,28.00
2018-04-18T12:43:15.956Z,28.10
2018-04-18T12:48:20.880Z,28.10
2018-04-18T12:53:24.766Z,28.10
2018-04-18T13:03:35.279Z,28.00
2018-04-18T13:08:39.971Z,28.10
2018-04-18T13:13:42.929Z,28.10
2018-04-18T13:18:46.723Z,28.20
2018-04-18T13:23:50.391Z,28.00
2018-04-18T13:28:55.834Z,28.00
2018-04-18T13:33:58.872Z,28.10
2018-04-18T13:39:03.513Z,28.10
2018-04-18T13:44:07.153Z,28.20
2018-04-18T13:49:10.023Z,28.20
2018-04-18T13:54:15.337Z,28.30
2018-04-18T13:59:21.767Z,28.20
2018-04-18T14:09:43.860Z,28.10
2018-04-18T14:14:49.010Z,28.10
2018-04-18T14:19:52.520Z,28.00
2018-04-18T14:24:57.381Z,27.90
2018-04-18T14:30:00.498Z,27.90
2018-04-18T14:35:05.541Z,27.80
2018-04-18T14:40:09.931Z,27.60
2018-04-18T14:45:15.661Z,27.60
2018-04-18T14:50:19.792Z,27.60
2018-04-18T15:00:35.884Z,27.50
2018-04-18T15:05:38.559Z,27.40
2018-04-18T15:10:41.301Z,27.30
2018-04-18T15:15:44.351Z,27.30
2018-04-18T15:20:53.358Z,27.20
2018-04-18T15:26:01.336Z,27.00
2018-04-18T15:31:09.423Z,26.90
2018-04-18T15:36:13.633Z,26.90
2018-04-18T15:41:16.184Z,26.80
2018-04-18T15:46:21.334Z,26.70
2018-04-18T15:51:27.291Z,26.50
2018-04-18T15:56:29.857Z,26.40
2018-04-18T16:01:34.229Z,26.40
2018-04-18T16:06:37.258Z,26.30
2018-04-18T16:11:40.263Z,26.20
2018-04-18T16:16:43.127Z,26.10
2018-04-18T16:21:46.113Z,26.00
2018-04-18T16:26:50.427Z,25.90
2018-04-18T16:31:54.542Z,25.80
2018-04-18T16:37:00.244Z,25.70
2018-04-18T16:42:04.132Z,25.60
2018-04-18T16:47:07.512Z,25.50
2018-04-18T16:52:10.351Z,25.40
2018-04-18T16:57:13.388Z,25.30
2018-04-18T17:02:19.388Z,25.10
2018-04-18T17:07:22.113Z,24.80
2018-04-18T17:12:24.649Z,24.70
2018-04-18T17:17:27.443Z,24.50
2018-04-18T17:22:35.007Z,24.30
2018-04-18T17:27:41.696Z,24.10
2018-04-18T17:32:44.596Z,24.00
2018-04-18T17:37:47.330Z,23.80
2018-04-18T17:42:50.137Z,23.60
2018-04-18T17:47:52.985Z,23.40
2018-04-18T17:52:55.699Z,23.30
2018-04-18T17:57:58.562Z,23.20
2018-04-18T18:03:01.269Z,22.90
2018-04-18T18:08:04.331Z,22.80
2018-04-18T18:13:07.207Z,22.60
2018-04-18T18:18:09.919Z,22.40
2018-04-18T18:23:12.546Z,22.30
2018-04-18T18:28:15.133Z,22.10
2018-04-18T18:33:17.743Z,22.00
2018-04-18T18:38:21.049Z,21.80
2018-04-18T18:43:23.826Z,21.60
2018-04-18T18:48:26.501Z,21.40
2018-04-18T18:53:29.612Z,21.30
2018-04-18T18:58:32.909Z,21.10
2018-04-18T19:03:35.742Z,20.90
2018-04-18T19:08:38.407Z,20.70
2018-04-18T19:13:41.171Z,20.50
2018-04-18T19:18:44.057Z,20.40
2018-04-18T19:23:46.984Z,20.20
2018-04-18T19:28:49.690Z,20.00
2018-04-18T19:33:52.381Z,19.90
2018-04-18T19:38:55.033Z,19.70
2018-04-18T19:43:57.737Z,19.60
2018-04-18T19:49:00.440Z,19.40
2018-04-18T19:54:03.263Z,19.30
2018-04-18T19:59:05.993Z,19.10
2018-04-18T20:04:08.930Z,19.00
2018-04-18T20:09:12.023Z,18.80
2018-04-18T20:14:14.673Z,18.70
2018-04-18T20:19:17.381Z,18.50
2018-04-18T20:24:20.434Z,18.40
2018-04-18T20:29:23.964Z,18.20
2018-04-18T20:34:26.766Z,18.00
2018-04-18T20:39:29.774Z,17.90
2018-04-18T20:44:32.680Z,17.70
2018-04-18T20:49:35.442Z,17.60
2018-04-18T20:54:38.341Z,17.40
2018-04-18T20:59:42.723Z,17.30
2018-04-18T21:04:45.496Z,17.20
2018-04-18T21:09:48.539Z,17.00
2018-04-18T21:14:51.447Z,16.90
2018-04-18T21:19:54.485Z,16.80
2018-04-18T21:24:58.096Z,16.70
2018-04-18T21:30:01.609Z,16.50
2018-04-18T21:35:04.790Z,16.40
2018-04-18T21:40:08.294Z,16.30
2018-04-18T21:45:11.034Z,16.20
2018-04-18T21:50:13.774Z,16.10
2018-04-18T21:55:16.479Z,16.00
2018-04-18T22:00:19.284Z,15.90
2018-04-18T22:05:22.062Z,15.80
2018-04-18T22:10:25.719Z,15.70
2018-04-18T22:15:28.382Z,15.60
2018-04-18T22:20:31.673Z,15.50
2018-04-18T22:25:35.224Z,15.40
2018-04-18T22:30:38.029Z,15.30
2018-04-18T22:35:41.021Z,15.20
2018-04-18T22:40:44.413Z,15.10
2018-04-18T22:45:47.285Z,15.00
2018-04-18T22:50:50.168Z,14.90
2018-04-18T22:55:52.945Z,14.80
2018-04-18T23:00:56.082Z,14.70
2018-04-18T23:05:59.777Z,14.60
2018-04-18T23:11:02.408Z,14.50
2018-04-18T23:16:06.010Z,14.40
2018-04-18T23:21:09.237Z,14.30
2018-04-18T23:26:12.223Z,14.20
2018-04-18T23:31:15.240Z,14.20
2018-04-18T23:36:18.202Z,14.10
2018-04-18T23:41:21.247Z,14.00
2018-04-18T23:46:24.106Z,13.90
2018-04-18T23:51:27.667Z,13.80
2018-04-18T23:56:30.694Z,13.70
